Upton, Kentucky
Current Conditions -  °F | °C
As of 6:15 PM on Friday 31 Oct 2014 (Local Time) from KGLW Reporting Station
Overcast Overcast  
Wind Chill: 34°   Ceiling: 4300
Heat Index: 42°   Visibility: 10mi
Dew Point: 28°   Wind: 14mph
Humidity: 59%   Direction: 340°NNW
Pressure: 30.06"   Gusts: 20mph
Location:  37.46°N, 85.9°W
Report Text: KGLW 312215Z AUTO 34012G17KT 10SM BKN043 OVC070 05/M02 A3006 RMK AO2 T00531021
Loading
Personal Weather Stations






























Interactive Weather Map
Tropical Storm Tracking
New forecast layout! Learn more

10-Day Weather Forecast

Advertisements
Track Severe Weather on mobile